Time;durP1;ratioP1;P1;durP2;ratioP2;P2;SDS_P1;SDS_P2;PMS_P1;PMS_P2;Temp;Humidity;BMP_temperature;BMP_pressure;BME280_temperature;BME280_humidity;BME280_pressure;Samples;Min_cycle;Max_cycle;Signal;HPM_P1;HPM_P2
2022/01/27 00:02:57;;;;;;;;;;;;;;;5.34;100.00;102257.41;6261255;22;19922;-77
2022/01/27 00:05:26;;;;;;;;;;;;;;;5.33;100.00;102244.25;6270245;22;19946;-79
2022/01/27 00:13:12;;;;;;;;;;;;;;;5.34;100.00;102226.03;6282025;22;19919;-79
2022/01/27 00:15:41;;;;;;;;;;;;;;;5.35;100.00;102201.69;6247302;22;19922;-79
2022/01/27 00:18:16;;;;;;;;;;;;;;;5.36;100.00;102208.69;6257770;22;19916;-79
2022/01/27 00:20:45;;;;;;;;;;;;;;;5.36;100.00;102205.19;6247927;22;19915;-79
2022/01/27 00:23:14;;;;;;;;;;;;;;;5.37;100.00;102194.81;6275379;22;19926;-79
2022/01/27 00:25:43;;;;;;;;;;;;;;;5.38;100.00;102193.97;6263363;22;19922;-79
2022/01/27 00:28:11;;;;;;;;;;;;;;;5.37;100.00;102186.97;6281958;22;19923;-79
2022/01/27 00:30:40;;;;;;;;;;;;;;;5.37;100.00;102171.28;6285646;22;19919;-79
2022/01/27 00:33:08;;;;;;;;;;;;;;;5.36;100.00;102171.22;6237765;22;19915;-79
2022/01/27 00:35:37;;;;;;;;;;;;;;;5.36;100.00;102171.22;6287781;22;20179;-79
2022/01/27 00:38:05;;;;;;;;;;;;;;;5.35;100.00;102159.88;6265316;22;19922;-79
2022/01/27 00:40:34;;;;;;;;;;;;;;;5.35;100.00;102144.19;6288352;22;20039;-79
2022/01/27 00:43:02;;;;;;;;;;;;;;;5.34;100.00;102145.00;6289219;22;19937;-79
2022/01/27 00:45:32;;;;;;;;;;;;;;;5.32;100.00;102149.28;6284288;22;20215;-80
2022/01/27 00:48:03;;;;;;;;;;;;;;;5.28;100.00;102135.16;6250036;22;19915;-79
2022/01/27 00:50:34;;;;;;;;;;;;;;;5.27;100.00;102159.53;6268399;22;20013;-79
2022/01/27 00:53:06;;;;;;;;;;;;;;;5.26;100.00;102162.94;6281521;22;19922;-79
2022/01/27 00:55:40;;;;;;;;;;;;;;;5.27;100.00;102156.00;6276295;22;20450;-79
2022/01/27 01:01:01;;;;;;;;;;;;;;;5.26;100.00;102131.59;6242636;22;19922;-78
2022/01/27 01:03:35;;;;;;;;;;;;;;;5.24;100.00;102106.22;6273625;22;20368;-79
2022/01/27 01:11:51;;;;;;;;;;;;;;;5.19;100.00;102111.22;6264457;22;19915;-77
2022/01/27 01:20:26;;;;;;;;;;;;;;;5.16;100.00;102105.88;6224142;22;20018;-77
2022/01/27 01:33:13;;;;;;;;;;;;;;;5.00;100.00;102083.38;6269098;22;19922;-77
2022/01/27 01:35:49;;;;;;;;;;;;;;;4.99;100.00;102092.03;6253025;22;19926;-77
2022/01/27 01:38:21;;;;;;;;;;;;;;;5.00;100.00;102072.03;6271773;22;20131;-77
2022/01/27 01:40:50;;;;;;;;;;;;;;;4.98;100.00;102074.56;6244839;22;19922;-77
2022/01/27 01:43:20;;;;;;;;;;;;;;;4.95;100.00;102066.56;6267816;22;19945;-77
2022/01/27 01:45:49;;;;;;;;;;;;;;;4.94;100.00;102077.88;6276338;22;19939;-77
2022/01/27 01:48:17;;;;;;;;;;;;;;;4.92;100.00;102105.63;6269967;22;19946;-78
2022/01/27 01:50:47;;;;;;;;;;;;;;;4.93;100.00;102096.97;6261216;22;19915;-78
2022/01/27 01:53:16;;;;;;;;;;;;;;;4.93;100.00;102096.97;6258467;22;19974;-77
2022/01/27 01:55:45;;;;;;;;;;;;;;;4.94;100.00;102076.97;6276314;22;19915;-77
2022/01/27 01:58:14;;;;;;;;;;;;;;;4.94;100.00;102064.81;6266577;22;19915;-77
2022/01/27 02:00:42;;;;;;;;;;;;;;;4.95;100.00;102047.41;6242894;22;20241;-77
2022/01/27 02:03:11;;;;;;;;;;;;;;;4.92;100.00;102048.16;6267071;22;19915;-79
2022/01/27 02:05:47;;;;;;;;;;;;;;;4.88;100.00;102041.91;6210167;22;19922;-77
2022/01/27 02:19:18;;;;;;;;;;;;;;;4.88;100.00;102025.34;6257444;22;20241;-77
2022/01/27 02:21:46;;;;;;;;;;;;;;;4.90;100.00;102028.94;6287709;22;20326;-77
2022/01/27 02:24:16;;;;;;;;;;;;;;;4.88;100.00;102028.84;6259369;22;19915;-76
2022/01/27 02:26:44;;;;;;;;;;;;;;;4.86;100.00;102017.44;6248925;22;20356;-77
2022/01/27 02:29:12;;;;;;;;;;;;;;;4.87;100.00;102013.97;6241245;22;19923;-77
2022/01/27 02:31:41;;;;;;;;;;;;;;;4.88;100.00;102013.19;6249453;22;19915;-77
2022/01/27 02:34:09;;;;;;;;;;;;;;;4.90;100.00;102018.47;6262884;22;19923;-77
2022/01/27 02:36:37;;;;;;;;;;;;;;;4.90;100.00;102015.88;6261736;22;19926;-77
2022/01/27 02:39:07;;;;;;;;;;;;;;;4.92;100.00;102021.16;6272365;22;19926;-77
2022/01/27 02:41:37;;;;;;;;;;;;;;;4.92;100.00;102018.56;6237520;22;19919;-77
2022/01/27 02:44:05;;;;;;;;;;;;;;;4.94;100.00;102019.50;6264840;22;19915;-77
2022/01/27 02:46:42;;;;;;;;;;;;;;;4.95;100.00;102014.31;6270485;22;19919;-77
2022/01/27 02:49:10;;;;;;;;;;;;;;;4.96;100.00;102000.47;6270531;22;19922;-77
2022/01/27 02:51:38;;;;;;;;;;;;;;;4.96;100.00;102000.47;6273003;22;19915;-77
2022/01/27 02:54:07;;;;;;;;;;;;;;;4.96;100.00;101997.84;6249683;22;19915;-77
2022/01/27 02:56:42;;;;;;;;;;;;;;;4.96;100.00;102000.47;6212264;22;19919;-77
2022/01/27 02:59:11;;;;;;;;;;;;;;;4.96;100.00;102003.06;6273710;22;19915;-77
2022/01/27 03:01:39;;;;;;;;;;;;;;;4.98;100.00;102000.53;6270782;22;20253;-77
2022/01/27 03:04:08;;;;;;;;;;;;;;;4.96;100.00;101976.94;6231709;22;20337;-78
2022/01/27 03:06:37;;;;;;;;;;;;;;;4.97;100.00;101973.53;6274724;22;20105;-78
2022/01/27 03:09:05;;;;;;;;;;;;;;;4.99;100.00;101969.25;6237087;22;19922;-77
2022/01/27 03:11:41;;;;;;;;;;;;;;;4.97;100.00;101960.47;6275701;22;20131;-77
2022/01/27 03:14:10;;;;;;;;;;;;;;;4.97;100.00;101956.94;6269294;22;19918;-77
2022/01/27 03:16:39;;;;;;;;;;;;;;;4.96;100.00;101976.06;6275051;22;19922;-77
2022/01/27 03:19:08;;;;;;;;;;;;;;;4.95;100.00;101974.25;6240169;22;19926;-76
2022/01/27 03:21:36;;;;;;;;;;;;;;;4.94;100.00;101959.44;6273348;22;19926;-77
2022/01/27 03:24:05;;;;;;;;;;;;;;;4.94;100.00;101952.47;6222342;22;19962;-77
2022/01/27 03:26:33;;;;;;;;;;;;;;;4.95;100.00;101954.25;6276125;22;19938;-77
2022/01/27 03:29:02;;;;;;;;;;;;;;;4.96;100.00;101956.06;6275938;22;19915;-78
2022/01/27 03:31:31;;;;;;;;;;;;;;;4.96;100.00;101956.06;6250558;22;19915;-78
2022/01/27 03:33:59;;;;;;;;;;;;;;;4.97;100.00;101929.13;6269838;22;19922;-77
2022/01/27 03:36:27;;;;;;;;;;;;;;;4.98;100.00;101948.28;6268549;22;19926;-77
2022/01/27 03:38:56;;;;;;;;;;;;;;;5.01;100.00;101938.88;6236334;22;19922;-77
2022/01/27 03:41:29;;;;;;;;;;;;;;;5.03;100.00;101939.81;6270957;22;20036;-77
2022/01/27 03:44:00;;;;;;;;;;;;;;;5.06;100.00;101932.09;6245391;22;19926;-78
2022/01/27 03:46:29;;;;;;;;;;;;;;;5.06;100.00;101915.53;6235268;22;20505;-77
2022/01/27 03:48:58;;;;;;;;;;;;;;;5.06;100.00;101921.66;6267875;22;20227;-77
2022/01/27 03:51:26;;;;;;;;;;;;;;;5.08;100.00;101906.03;6257143;22;20253;-77
2022/01/27 03:53:55;;;;;;;;;;;;;;;5.08;100.00;101906.97;6274496;22;19938;-80
2022/01/27 03:56:23;;;;;;;;;;;;;;;5.10;100.00;101900.88;6255931;22;20135;-76
2022/01/27 03:58:51;;;;;;;;;;;;;;;5.11;100.00;101905.31;6274799;22;20361;-78
2022/01/27 04:01:19;;;;;;;;;;;;;;;5.11;100.00;101894.84;6270553;22;20124;-78
2022/01/27 04:03:48;;;;;;;;;;;;;;;5.13;100.00;101901.03;6268329;22;19926;-77
2022/01/27 04:06:21;;;;;;;;;;;;;;;5.11;100.00;101885.28;6266398;22;20016;-77
2022/01/27 04:08:50;;;;;;;;;;;;;;;5.13;100.00;101891.47;6225480;22;19915;-78
2022/01/27 04:11:18;;;;;;;;;;;;;;;5.13;100.00;101885.34;6254645;22;19915;-78
2022/01/27 04:13:46;;;;;;;;;;;;;;;5.16;100.00;101901.13;6207225;22;19919;-77
2022/01/27 04:16:15;;;;;;;;;;;;;;;5.16;100.00;101888.06;6209575;22;19915;-77
2022/01/27 04:18:43;;;;;;;;;;;;;;;5.17;100.00;101889.88;6241238;22;19919;-77
2022/01/27 04:21:12;;;;;;;;;;;;;;;5.18;100.00;101899.47;6255182;22;20246;-76
2022/01/27 04:23:40;;;;;;;;;;;;;;;5.20;100.00;101903.06;6237758;22;20317;-77
2022/01/27 04:26:10;;;;;;;;;;;;;;;5.19;100.00;101894.31;6225773;22;19919;-77
2022/01/27 04:28:40;;;;;;;;;;;;;;;5.20;100.00;101890.00;6271420;22;19915;-77
2022/01/27 04:31:10;;;;;;;;;;;;;;;5.20;100.00;101890.91;6217987;22;19919;-78
2022/01/27 04:33:39;;;;;;;;;;;;;;;5.21;100.00;101895.28;6267488;22;19919;-77
2022/01/27 04:36:22;;;;;;;;;;;;;;;5.22;100.00;101883.13;6258227;22;19919;-77
2022/01/27 04:39:09;;;;;;;;;;;;;;;5.22;100.00;101878.78;6271499;22;19915;-77
2022/01/27 04:41:46;;;;;;;;;;;;;;;5.21;100.00;101876.09;6141087;22;1459281;-77
2022/01/27 04:44:34;;;;;;;;;;;;;;;5.22;100.00;101881.41;6242783;22;19938;-77
2022/01/27 04:47:15;;;;;;;;;;;;;;;5.20;100.00;101871.72;6238575;22;19922;-78
2022/01/27 04:49:44;;;;;;;;;;;;;;;5.15;100.00;101863.66;6276934;22;19922;-77
2022/01/27 04:52:13;;;;;;;;;;;;;;;5.14;100.00;101871.44;6268745;22;19916;-77
2022/01/27 04:57:16;;;;;;;;;;;;;;;5.11;100.00;101871.34;6257859;22;20218;-77
2022/01/27 04:59:45;;;;;;;;;;;;;;;5.10;100.00;101867.81;6275857;22;19915;-77
2022/01/27 05:02:23;;;;;;;;;;;;;;;5.07;100.00;101857.25;6261301;22;19922;-77
2022/01/27 05:04:51;;;;;;;;;;;;;;;5.01;100.00;101855.28;6271620;22;19915;-77
2022/01/27 05:07:40;;;;;;;;;;;;;;;4.96;100.00;101855.91;6239022;22;19915;-77
2022/01/27 05:10:12;;;;;;;;;;;;;;;4.94;100.00;101855.84;6269593;22;19920;-77
2022/01/27 05:12:46;;;;;;;;;;;;;;;4.91;100.00;101837.41;6239722;22;19915;-77
2022/01/27 05:15:14;;;;;;;;;;;;;;;4.88;100.00;101840.78;6258519;22;19915;-77
2022/01/27 05:17:43;;;;;;;;;;;;;;;4.86;100.00;101838.94;6242261;22;19927;-77
2022/01/27 05:20:11;;;;;;;;;;;;;;;4.85;100.00;101831.94;6273610;22;19938;-77
2022/01/27 05:22:39;;;;;;;;;;;;;;;4.83;100.00;101818.81;6269175;22;19923;-77
2022/01/27 05:25:07;;;;;;;;;;;;;;;4.83;100.00;101824.03;6229996;22;19915;-77
2022/01/27 05:27:36;;;;;;;;;;;;;;;4.83;100.00;101823.16;6238697;22;19919;-77
2022/01/27 05:30:05;;;;;;;;;;;;;;;4.83;100.00;101823.16;6260743;22;19915;-77
2022/01/27 05:32:35;;;;;;;;;;;;;;;4.84;100.00;101835.38;6269504;22;20121;-77
2022/01/27 05:35:03;;;;;;;;;;;;;;;4.83;100.00;101818.81;6265094;22;19915;-77
2022/01/27 05:37:32;;;;;;;;;;;;;;;4.82;100.00;101817.03;6268870;22;20123;-77
2022/01/27 05:40:00;;;;;;;;;;;;;;;4.84;100.00;101817.09;6272388;22;19915;-76
2022/01/27 05:42:29;;;;;;;;;;;;;;;4.84;100.00;101814.50;6276150;22;20100;-77
2022/01/27 05:44:57;;;;;;;;;;;;;;;4.84;100.00;101811.88;6223701;22;20329;-77
2022/01/27 05:47:25;;;;;;;;;;;;;;;4.84;100.00;101815.38;6271613;22;19965;-77
2022/01/27 05:49:54;;;;;;;;;;;;;;;4.84;100.00;101822.34;6268704;22;19922;-77
2022/01/27 05:52:22;;;;;;;;;;;;;;;4.84;100.00;101818.00;6274188;22;19945;-77
2022/01/27 05:54:50;;;;;;;;;;;;;;;4.84;100.00;101811.88;6273767;22;19919;-77
2022/01/27 05:57:18;;;;;;;;;;;;;;;4.85;100.00;101805.81;6245182;22;20456;-77
2022/01/27 05:59:47;;;;;;;;;;;;;;;4.85;100.00;101792.75;6266227;22;19919;-79
2022/01/27 06:02:16;;;;;;;;;;;;;;;4.85;100.00;101798.88;6274026;22;19915;-79
2022/01/27 06:04:44;;;;;;;;;;;;;;;4.85;100.00;101788.41;6278956;22;19919;-79
2022/01/27 06:07:13;;;;;;;;;;;;;;;4.86;100.00;101795.44;6285587;22;19921;-79
2022/01/27 06:09:42;;;;;;;;;;;;;;;4.88;100.00;101791.16;6280181;22;19922;-79
2022/01/27 06:12:10;;;;;;;;;;;;;;;4.90;100.00;101788.63;6280057;22;19915;-79
2022/01/27 06:14:38;;;;;;;;;;;;;;;4.94;100.00;101794.88;6258350;22;19919;-79
2022/01/27 06:17:07;;;;;;;;;;;;;;;4.96;100.00;101795.81;6233895;22;19930;-79
2022/01/27 06:19:35;;;;;;;;;;;;;;;4.98;100.00;101786.31;6264018;22;19919;-79
2022/01/27 06:22:11;;;;;;;;;;;;;;;5.01;100.00;101787.34;6282314;22;20483;-79
2022/01/27 06:24:40;;;;;;;;;;;;;;;5.04;100.00;101784.84;6276300;22;19922;-79
2022/01/27 06:27:09;;;;;;;;;;;;;;;5.05;100.00;101781.41;6278900;22;19930;-79
2022/01/27 06:29:38;;;;;;;;;;;;;;;5.07;100.00;101778.88;6281685;22;20058;-79
2022/01/27 06:32:07;;;;;;;;;;;;;;;5.08;100.00;101778.03;6267667;22;19938;-79
2022/01/27 06:34:35;;;;;;;;;;;;;;;5.11;100.00;101778.16;6278317;22;19919;-79
2022/01/27 06:37:03;;;;;;;;;;;;;;;5.12;100.00;101774.69;6235198;22;19918;-79
2022/01/27 06:39:32;;;;;;;;;;;;;;;5.14;100.00;101772.16;6266008;22;19919;-79
2022/01/27 06:42:01;;;;;;;;;;;;;;;5.16;100.00;101767.88;6278000;22;19915;-79
2022/01/27 06:44:29;;;;;;;;;;;;;;;5.18;100.00;101768.81;6236005;22;19930;-79
2022/01/27 06:46:57;;;;;;;;;;;;;;;5.20;100.00;101764.59;6241659;22;19919;-79
2022/01/27 06:49:26;;;;;;;;;;;;;;;5.22;100.00;101762.91;6272957;22;19922;-79
2022/01/27 06:51:55;;;;;;;;;;;;;;;5.23;100.00;101768.19;6228432;22;20111;-79
2022/01/27 06:54:23;;;;;;;;;;;;;;;5.24;100.00;101762.13;6278350;22;19922;-78
2022/01/27 06:56:51;;;;;;;;;;;;;;;5.27;100.00;101766.59;6206914;22;20108;-78
2022/01/27 06:59:19;;;;;;;;;;;;;;;5.28;100.00;101773.59;6272151;22;19919;-78
2022/01/27 07:01:48;;;;;;;;;;;;;;;5.30;100.00;101760.59;6277454;22;19930;-78
2022/01/27 07:04:17;;;;;;;;;;;;;;;5.31;100.00;101765.88;6268077;22;19915;-81
2022/01/27 07:06:47;;;;;;;;;;;;;;;5.32;100.00;101754.59;6240244;22;20386;-81
2022/01/27 07:09:15;;;;;;;;;;;;;;;5.35;100.00;101748.59;6250987;22;20119;-81
2022/01/27 07:11:43;;;;;;;;;;;;;;;5.35;100.00;101767.78;6272273;22;19923;-82
2022/01/27 07:14:12;;;;;;;;;;;;;;;5.38;100.00;101773.13;6244556;22;20063;-82
2022/01/27 07:16:42;;;;;;;;;;;;;;;5.39;100.00;101772.31;6277991;22;20117;-82
2022/01/27 07:19:11;;;;;;;;;;;;;;;5.40;100.00;101766.22;6188171;22;19922;-80
2022/01/27 07:21:39;;;;;;;;;;;;;;;5.40;100.00;101771.47;6228077;22;19919;-80
2022/01/27 07:24:07;;;;;;;;;;;;;;;5.43;100.00;101768.97;6273201;22;20293;-81
2022/01/27 07:26:36;;;;;;;;;;;;;;;5.43;100.00;101771.59;6257964;22;19974;-81
2022/01/27 07:29:04;;;;;;;;;;;;;;;5.46;100.00;101757.72;6262480;22;19919;-82
2022/01/27 07:31:32;;;;;;;;;;;;;;;5.47;100.00;101763.03;6218738;22;19915;-81
2022/01/27 07:34:01;;;;;;;;;;;;;;;5.49;100.00;101762.22;6268376;22;19919;-81
2022/01/27 07:36:31;;;;;;;;;;;;;;;5.50;100.00;101767.50;6276551;22;19922;-81
2022/01/27 07:39:01;;;;;;;;;;;;;;;5.54;100.00;101768.47;6242078;22;19923;-82
2022/01/27 07:41:29;;;;;;;;;;;;;;;5.56;100.00;101770.34;6245434;22;19921;-82
2022/01/27 07:43:57;;;;;;;;;;;;;;;5.59;100.00;101766.94;6273338;22;20344;-82
2022/01/27 07:46:26;;;;;;;;;;;;;;;5.61;100.00;101765.28;6236561;22;20349;-82
2022/01/27 07:48:55;;;;;;;;;;;;;;;5.63;100.00;101763.59;6244519;22;19922;-81
2022/01/27 07:51:24;;;;;;;;;;;;;;;5.65;100.00;101746.25;6260077;22;20214;-81
2022/01/27 07:53:52;;;;;;;;;;;;;;;5.68;100.00;101763.81;6240281;22;19919;-82
2022/01/27 07:56:32;;;;;;;;;;;;;;;5.72;100.00;101758.72;6251951;22;20264;-82
2022/01/27 07:59:01;;;;;;;;;;;;;;;5.74;100.00;101758.78;6244654;22;19934;-80
2022/01/27 08:01:29;;;;;;;;;;;;;;;5.78;100.00;101763.31;6270958;22;19919;-81
2022/01/27 08:03:58;;;;;;;;;;;;;;;5.78;100.00;101761.56;6221066;22;20119;-81
2022/01/27 08:06:26;;;;;;;;;;;;;;;5.83;100.00;101748.69;6236910;22;20227;-80
2022/01/27 08:08:55;;;;;;;;;;;;;;;5.84;100.00;101756.59;6243262;22;20203;-81
2022/01/27 08:11:23;;;;;;;;;;;;;;;5.89;100.00;101761.09;6260722;22;20249;-81
2022/01/27 08:13:51;;;;;;;;;;;;;;;5.92;100.00;101756.00;6278139;22;19946;-81
2022/01/27 08:16:20;;;;;;;;;;;;;;;5.96;100.00;101747.44;6282320;22;19922;-82
2022/01/27 08:18:48;;;;;;;;;;;;;;;5.99;100.00;101753.69;6259628;22;19942;-81
2022/01/27 08:21:17;;;;;;;;;;;;;;;6.03;100.00;101754.66;6286358;22;19915;-82
2022/01/27 08:23:45;;;;;;;;;;;;;;;6.05;100.00;101738.19;6267777;22;20249;-81
2022/01/27 08:26:26;;;;;;;;;;;;;;;6.11;100.00;101745.38;6288303;22;19941;-81
2022/01/27 08:29:08;;;;;;;;;;;;;;;6.15;100.00;101744.66;6246646;22;19934;-82
2022/01/27 08:34:44;;;;;;;;;;;;;;;6.24;100.00;101757.19;6294646;22;19922;-82
2022/01/27 08:37:21;;;;;;;;;;;;;;;6.28;100.00;101743.34;6256713;22;19919;-81
2022/01/27 08:39:49;;;;;;;;;;;;;;;6.31;100.00;101753.91;6296143;22;19921;-81
2022/01/27 08:42:17;;;;;;;;;;;;;;;6.35;100.00;101760.16;6260074;22;19915;-80
2022/01/27 08:44:47;;;;;;;;;;;;;;;6.37;100.00;101753.25;6296877;22;19915;-80
2022/01/27 08:47:16;;;;;;;;;;;;;;;6.39;100.00;101735.84;6295873;22;20252;-82
2022/01/27 08:49:46;;;;;;;;;;;;;;;6.42;100.00;101738.59;6227923;22;19915;-80
2022/01/27 08:52:15;;;;;;;;;;;;;;;6.46;100.00;101752.69;6271178;22;20251;-82
2022/01/27 08:54:43;;;;;;;;;;;;;;;6.48;100.00;101741.41;6270483;22;19915;-80
2022/01/27 08:57:14;;;;;;;;;;;;;;;6.49;100.00;101751.06;6235327;22;19915;-81
2022/01/27 08:59:42;;;;;;;;;;;;;;;6.53;100.00;101747.69;6294603;22;19919;-80
2022/01/27 09:02:11;;;;;;;;;;;;;;;6.56;100.00;101749.53;6258629;22;19922;-81
2022/01/27 09:04:39;;;;;;;;;;;;;;;6.58;100.00;101766.22;6270890;22;19915;-82
2022/01/27 09:07:07;;;;;;;;;;;;;;;6.59;100.00;101761.00;6297950;22;19915;-82
2022/01/27 09:09:36;;;;;;;;;;;;;;;6.61;100.00;101756.69;6245621;22;19915;-82
2022/01/27 09:12:05;;;;;;;;;;;;;;;6.61;100.00;101751.47;6296497;22;20444;-81
2022/01/27 09:14:38;;;;;;;;;;;;;;;6.65;100.00;101752.47;6296075;22;19929;-82
2022/01/27 09:17:10;;;;;;;;;;;;;;;6.67;100.00;101755.13;6272771;22;19915;-82
2022/01/27 09:19:40;;;;;;;;;;;;;;;6.69;100.00;101763.94;6295217;22;19925;-81
2022/01/27 09:22:13;;;;;;;;;;;;;;;6.70;100.00;101761.38;6235515;22;19922;-81
2022/01/27 09:24:58;;;;;;;;;;;;;;;6.71;100.00;101770.09;6288330;22;20242;-82
2022/01/27 09:27:27;;;;;;;;;;;;;;;6.74;100.00;101764.97;6261936;22;20334;-81
2022/01/27 09:30:17;;;;;;;;;;;;;;;6.75;100.00;101759.81;6255389;22;19915;-81
2022/01/27 09:32:46;;;;;;;;;;;;;;;6.79;100.00;101761.69;6236673;22;20337;-82
2022/01/27 09:35:16;;;;;;;;;;;;;;;6.84;100.00;101764.44;6238082;22;19915;-82
2022/01/27 09:37:44;;;;;;;;;;;;;;;6.87;100.00;101764.56;6295091;22;19922;-82
2022/01/27 09:40:13;;;;;;;;;;;;;;;6.90;100.00;101764.66;6235329;22;19922;-82
2022/01/27 09:42:42;;;;;;;;;;;;;;;6.93;100.00;101766.47;6259039;22;19923;-82
2022/01/27 09:45:10;;;;;;;;;;;;;;;6.95;100.00;101765.69;6294821;22;20226;-81
2022/01/27 09:47:42;;;;;;;;;;;;;;;6.98;100.00;101778.00;6295980;22;19915;-81
2022/01/27 09:50:26;;;;;;;;;;;;;;;6.99;100.00;101783.31;6260110;22;20304;-81
2022/01/27 09:52:55;;;;;;;;;;;;;;;7.00;100.00;101786.81;6288360;22;19915;-83
2022/01/27 09:55:23;;;;;;;;;;;;;;;7.00;100.00;101792.06;6285732;22;19918;-82
2022/01/27 09:57:54;;;;;;;;;;;;;;;7.01;100.00;101797.34;6294041;22;19915;-82
2022/01/27 10:00:22;;;;;;;;;;;;;;;7.03;100.00;101793.06;6320002;22;19926;-82
2022/01/27 10:03:03;;;;;;;;;;;;;;;7.06;100.00;101794.88;6269470;22;19919;-82
2022/01/27 10:05:32;;;;;;;;;;;;;;;7.10;100.00;101795.88;6258142;22;19907;-81
2022/01/27 10:08:05;;;;;;;;;;;;;;;7.15;100.00;101787.31;6232134;22;19915;-82
2022/01/27 10:10:35;;;;;;;;;;;;;;;7.19;100.00;101789.19;6258078;22;19918;-81
2022/01/27 10:13:08;;;;;;;;;;;;;;;7.24;100.00;101786.72;6283944;22;19923;-81
2022/01/27 10:18:04;;;;;;;26.67;5.45;;;;;;;7.30;100.00;101794.78;5116278;27;20475;-81
2022/01/27 10:20:35;;;;;;;20.75;4.85;;;;;;;7.34;100.00;101790.53;5078924;28;20048;-80
2022/01/27 10:23:13;;;;;;;30.92;5.40;;;;;;;7.36;100.00;101788.84;5095066;28;20070;-80
2022/01/27 10:25:51;;;;;;;21.80;5.55;;;;;;;7.39;100.00;101795.06;5097787;28;20059;-80
2022/01/27 10:28:24;;;;;;;22.15;4.95;;;;;;;7.39;100.00;101787.22;5093804;28;20536;-80
2022/01/27 10:31:02;;;;;;;20.23;5.32;;;;;;;7.40;100.00;101796.84;5095708;28;20047;-80
2022/01/27 10:33:46;;;;;;;24.13;4.47;;;;;;;7.44;100.00;101802.19;5076947;28;20055;-81
2022/01/27 10:36:17;;;;;;;21.45;4.70;;;;;;;7.47;100.00;101804.91;5079137;28;20374;-81
2022/01/27 10:38:50;;;;;;;22.13;5.50;;;;;;;7.49;100.00;101806.72;5075209;28;20045;-81
2022/01/27 10:41:21;;;;;;;21.08;5.53;;;;;;;7.50;100.00;101805.00;5076735;28;20544;-80
2022/01/27 10:43:49;;;;;;;30.33;6.38;;;;;;;7.51;100.00;101817.28;5058795;28;20051;-80
2022/01/27 10:46:28;;;;;;;18.83;5.32;;;;;;;7.52;100.00;101806.81;5060665;28;20037;-81
2022/01/27 10:49:08;;;;;;;19.92;5.65;;;;;;;7.53;100.00;101807.72;5061369;28;20048;-80
2022/01/27 10:51:48;;;;;;;22.88;5.40;;;;;;;7.57;100.00;101801.72;5077243;28;20539;-80
2022/01/27 10:54:33;;;;;;;17.60;4.93;;;;;;;7.60;100.00;101807.06;5062479;28;20516;-80
2022/01/27 10:57:05;;;;;;;24.10;4.63;;;;;;;7.63;100.00;101799.28;5092564;28;20435;-80
2022/01/27 10:59:34;;;;;;;23.35;5.53;;;;;;;7.67;100.00;101795.91;5096410;28;20048;-80
2022/01/27 11:02:11;;;;;;;31.83;5.15;;;;;;;7.69;100.00;101809.06;5059526;28;20398;-81
2022/01/27 11:04:42;;;;;;;23.48;6.75;;;;;;;7.69;100.00;101801.19;5077550;28;20359;-80
2022/01/27 11:07:12;;;;;;;;;;;;;;;7.71;100.00;101805.66;5075534;28;20052;-79
2022/01/27 11:09:44;;;;;;;23.83;5.60;;;;;;;7.75;100.00;101804.91;5096627;28;20300;-80
2022/01/27 11:12:19;;;;;;;24.30;6.13;;;;;;;7.79;100.00;101804.16;5065600;28;20044;-81
2022/01/27 11:14:49;;;;;;;19.23;5.45;;;;;;;7.79;100.00;101804.16;5078065;28;20040;-81
2022/01/27 11:17:22;;;;;;;24.95;6.85;;;;;;;7.78;100.00;101797.13;5057530;28;20045;-80
2022/01/27 11:27:38;;;;;;;17.92;4.93;;;;;;;7.73;100.00;101803.97;5070301;28;20056;-80
2022/01/27 11:30:25;;;;;;;22.13;5.60;;;;;;;7.75;100.00;101814.50;5052845;28;20045;-78
2022/01/27 11:33:09;;;;;;;28.35;5.43;;;;;;;7.75;100.00;101806.63;5063131;28;20060;-79
2022/01/27 11:36:22;;;;;;;31.27;6.53;;;;;;;7.77;100.00;101805.84;5049000;28;20041;-79
2022/01/27 11:38:50;;;;;;;25.10;5.25;;;;;;;7.81;100.00;101804.22;5022997;28;20513;-78
2022/01/27 11:41:48;;;;;;;29.88;5.13;;;;;;;7.81;100.00;101809.47;5017179;28;20055;-78
2022/01/27 11:44:36;;;;;;;24.27;5.18;;;;;;;7.85;100.00;101810.44;5017352;28;20506;-78
2022/01/27 11:47:13;;;;;;;28.88;4.78;;;;;;;7.87;100.00;101806.13;5037827;28;20052;-78
2022/01/27 11:49:46;;;;;;;32.35;5.18;;;;;;;7.88;100.00;101808.81;5021226;28;20045;-76
2022/01/27 11:52:34;;;;;;;26.80;4.75;;;;;;;7.90;100.00;101800.94;5018393;28;20051;-80
2022/01/27 11:55:25;;;;;;;30.02;5.35;;;;;;;7.91;100.00;101800.13;5048576;28;20056;-79
2022/01/27 11:57:59;;;;;;;34.67;5.80;;;;;;;7.90;100.00;101801.84;5031495;28;20044;-79
2022/01/27 12:00:29;;;;;;;30.55;5.47;;;;;;;7.91;100.00;101811.50;5015801;28;20056;-78
2022/01/27 12:03:01;;;;;;;26.63;5.93;;;;;;;7.92;100.00;101799.25;5016051;28;20049;-78
2022/01/27 12:05:38;;;;;;;22.17;4.30;;;;;;;7.94;100.00;101800.19;5033254;28;20518;-78
2022/01/27 12:08:09;;;;;;;30.88;4.68;;;;;;;7.96;100.00;101809.03;5017197;28;20049;-78
2022/01/27 12:10:46;;;;;;;20.15;5.00;;;;;;;7.97;100.00;101806.41;5007785;28;20052;-79
2022/01/27 12:13:46;;;;;;;26.88;5.18;;;;;;;8.01;100.00;101796.91;5023588;28;20041;-78
2022/01/27 12:19:13;;;;;;;24.13;5.22;;;;;;;8.06;100.00;101807.56;5058077;28;20052;-79
2022/01/27 12:21:56;;;;;;;30.27;5.88;;;;;;;8.03;100.00;101787.31;5033187;28;20052;-80
2022/01/27 12:24:30;;;;;;;27.92;4.50;;;;;;;8.02;100.00;101801.31;5013796;28;20500;-78
2022/01/27 12:27:08;;;;;;;33.13;5.15;;;;;;;8.02;100.00;101800.44;5014656;28;20060;-80
2022/01/27 12:29:41;;;;;;;28.50;4.93;;;;;;;7.99;100.00;101803.84;5018504;28;20067;-78
2022/01/27 12:32:21;;;;;;;34.20;6.63;;;;;;;7.98;100.00;101804.69;5021902;28;20059;-79
2022/01/27 12:34:59;;;;;;;24.30;4.95;;;;;;;7.95;100.00;101809.84;5020783;28;20052;-78
2022/01/27 12:37:49;;;;;;;28.27;5.65;;;;;;;7.94;100.00;101803.72;5041309;28;20428;-79
2022/01/27 12:40:49;;;;;;;24.52;4.63;;;;;;;7.94;100.00;101805.44;5018404;28;20075;-79
2022/01/27 12:43:18;;;;;;;34.47;5.63;;;;;;;7.96;100.00;101801.16;4985588;28;20481;-80
2022/01/27 12:45:48;;;;;;;27.67;4.70;;;;;;;7.99;100.00;101802.09;4960171;28;20267;-78
2022/01/27 12:48:22;;;;;;;23.40;4.45;;;;;;;8.00;100.00;101803.91;4992339;28;20201;-78
2022/01/27 12:50:57;;;;;;;29.15;5.60;;;;;;;7.99;100.00;101791.59;4990794;28;20065;-78
2022/01/27 12:53:27;;;;;;;31.55;5.75;;;;;;;7.96;100.00;101796.78;4990018;28;20061;-78
2022/01/27 12:55:56;;;;;;;24.58;5.28;;;;;;;7.97;100.00;101801.16;4978480;28;20045;-78
2022/01/27 12:58:30;;;;;;;28.10;5.25;;;;;;;7.94;100.00;101797.56;4988461;28;20042;-78
2022/01/27 13:01:01;;;;;;;25.23;4.93;;;;;;;7.91;100.00;101810.63;4986846;28;20065;-79
2022/01/27 13:03:30;;;;;;;27.45;5.88;;;;;;;7.89;100.00;101805.31;4992699;28;20073;-79
2022/01/27 13:06:03;;;;;;;32.55;5.53;;;;;;;7.88;100.00;101797.38;4966803;28;20054;-79
2022/01/27 13:08:41;;;;;;;39.45;7.05;;;;;;;7.88;100.00;101797.38;4989546;28;20058;-78
2022/01/27 13:11:14;;;;;;;33.33;5.47;;;;;;;7.87;100.00;101795.63;4975648;28;20426;-79
2022/01/27 13:13:46;;;;;;;27.15;5.63;;;;;;;7.87;100.00;101787.75;4970334;28;20313;-78
2022/01/27 13:16:20;;;;;;;31.63;5.30;;;;;;;7.87;100.00;101790.38;5033846;28;20056;-80
2022/01/27 13:19:07;;;;;;;28.92;5.88;;;;;;;7.87;100.00;101796.50;5023600;28;20044;-79
2022/01/27 13:21:38;;;;;;;33.83;5.63;;;;;;;7.89;100.00;101813.19;5077363;28;20036;-79
2022/01/27 13:24:14;;;;;;;28.38;5.32;;;;;;;7.89;100.00;101807.94;5008726;28;20067;-78
2022/01/27 13:26:46;;;;;;;27.88;5.43;;;;;;;7.89;100.00;101814.94;5071198;28;20052;-78
2022/01/27 13:29:19;;;;;;;34.55;5.18;;;;;;;7.89;100.00;101814.94;5073821;28;20056;-79
2022/01/27 13:31:48;;;;;;;26.80;5.00;;;;;;;7.87;100.00;101811.38;5060909;28;20052;-79
2022/01/27 13:34:16;;;;;;;26.33;4.63;;;;;;;7.83;100.00;101804.25;5035442;28;20410;-80
2022/01/27 13:36:59;;;;;;;30.08;5.60;;;;;;;7.80;100.00;101816.41;5061858;28;20052;-79
2022/01/27 13:41:16;;;;;;;28.52;5.68;;;;;;;7.79;100.00;101821.63;5048656;28;20635;-86